Terminal Aerodrome Forecast
Issued by NWS North Platte, NE

Home | Current Version | Previous Version | Text Only | Print | Product List | Glossary On
Versions: 1 2 3 4 5 6 7 8 9 10 11 12 13
070
FTUS43 KLBF 271740
TAFLBF
TAF
KLBF 271740Z 2718/2818 36010KT P6SM SCT050 BKN200
     FM271900 06006KT P6SM VCSH BKN050 BKN200
     FM272200 07010KT P6SM SCT050 BKN100
      TEMPO 2722/2802 -TSRA BKN050CB
     FM280200 06007KT P6SM VCSH BKN150
     FM280800 VRB05KT P6SM BKN150=

USA.gov is the U.S. government's official web portal to all federal, state and local government web resources and services.